Time;durP1;ratioP1;P1;durP2;ratioP2;P2;SDS_P1;SDS_P2;PMS_P1;PMS_P2;Temp;Humidity;BMP_temperature;BMP_pressure;BME280_temperature;BME280_humidity;BME280_pressure;Samples;Min_cycle;Max_cycle;Signal;HPM_P1;HPM_P2
2022/09/17 00:00:20;;;;;;;0.60;0.60;;;;;;;;;;7393133;19;20097;-73
2022/09/17 00:02:50;;;;;;;0.60;0.52;;;;;;;;;;7392052;19;20029;-72
2022/09/17 00:05:15;;;;;;;0.55;0.50;;;;;;;;;;7393439;19;20011;-73
2022/09/17 00:07:41;;;;;;;0.93;0.70;;;;;;;;;;7391162;19;19999;-73
2022/09/17 00:10:07;;;;;;;0.68;0.52;;;;;;;;;;7392792;19;20010;-75
2022/09/17 00:12:32;;;;;;;1.42;0.60;;;;;;;;;;7391035;19;20002;-75
2022/09/17 00:14:57;;;;;;;1.50;0.70;;;;;;;;;;7391711;19;20592;-75
2022/09/17 00:17:23;;;;;;;1.85;0.40;;;;;;;;;;7389719;19;20006;-75
2022/09/17 00:19:48;;;;;;;1.08;0.40;;;;;;;;;;7391513;19;20011;-75
2022/09/17 00:22:14;;;;;;;2.25;0.50;;;;;;;;;;7391543;19;20006;-75
2022/09/17 00:24:39;;;;;;;0.52;0.52;;;;;;;;;;7389629;19;19999;-75
2022/09/17 00:27:05;;;;;;;0.20;0.15;;;;;;;;;;7390233;19;20020;-75
2022/09/17 00:29:30;;;;;;;0.50;0.50;;;;;;;;;;7391097;19;20016;-75
2022/09/17 00:31:55;;;;;;;0.77;0.28;;;;;;;;;;7391998;19;19999;-75
2022/09/17 00:34:21;;;;;;;0.70;0.30;;;;;;;;;;7391599;19;20007;-73
2022/09/17 00:36:46;;;;;;;1.48;0.70;;;;;;;;;;7390831;19;20286;-73
2022/09/17 00:39:14;;;;;;;0.38;0.30;;;;;;;;;;7392366;19;20006;-73
2022/09/17 00:41:40;;;;;;;0.95;0.30;;;;;;;;;;7397316;19;20027;-73
2022/09/17 00:44:37;;;;;;;0.73;0.40;;;;;;;;;;7396134;19;19987;-73
2022/09/17 00:47:02;;;;;;;0.52;0.30;;;;;;;;;;7395691;19;20002;-75
2022/09/17 00:49:29;;;;;;;0.93;0.30;;;;;;;;;;7397090;19;20070;-76
2022/09/17 00:52:07;;;;;;;0.80;0.60;;;;;;;;;;7396754;19;20035;-76
2022/09/17 00:54:33;;;;;;;0.82;0.50;;;;;;;;;;7398230;19;20010;-76
2022/09/17 00:56:59;;;;;;;0.22;0.22;;;;;;;;;;7399282;19;20003;-75
2022/09/17 00:59:25;;;;;;;0.90;0.60;;;;;;;;;;7394876;19;20045;-76
2022/09/17 01:01:51;;;;;;;0.43;0.30;;;;;;;;;;7395877;19;20007;-75
2022/09/17 01:04:18;;;;;;;1.90;0.43;;;;;;;;;;7397431;19;20010;-75
2022/09/17 01:07:35;;;;;;;1.50;0.50;;;;;;;;;;7399123;19;20011;-76
2022/09/17 01:10:24;;;;;;;1.23;0.30;;;;;;;;;;7395081;19;20017;-76
2022/09/17 01:13:15;;;;;;;0.52;0.50;;;;;;;;;;7398836;19;20014;-75
2022/09/17 01:15:49;;;;;;;0.45;0.45;;;;;;;;;;7397221;19;20023;-75
2022/09/17 01:18:41;;;;;;;0.60;0.60;;;;;;;;;;7396619;19;20018;-76
2022/09/17 01:21:46;;;;;;;1.20;0.68;;;;;;;;;;7395513;19;20014;-75
2022/09/17 01:24:49;;;;;;;0.63;0.50;;;;;;;;;;7398111;19;20014;-75
2022/09/17 01:27:52;;;;;;;2.40;0.40;;;;;;;;;;7388791;19;20010;-76
2022/09/17 01:30:56;;;;;;;1.17;0.52;;;;;;;;;;7394707;19;20059;-76
2022/09/17 01:33:45;;;;;;;0.50;0.50;;;;;;;;;;7394742;19;20015;-75
2022/09/17 01:36:24;;;;;;;2.00;0.65;;;;;;;;;;7397027;19;20026;-75
2022/09/17 01:39:27;;;;;;;1.80;0.70;;;;;;;;;;7397797;19;20014;-76
2022/09/17 01:41:55;;;;;;;1.95;0.60;;;;;;;;;;7392969;19;20006;-76
2022/09/17 01:44:34;;;;;;;2.58;0.65;;;;;;;;;;7393789;19;20014;-76
2022/09/17 01:47:16;;;;;;;0.80;0.60;;;;;;;;;;7396531;19;20014;-75
2022/09/17 01:49:42;;;;;;;3.50;0.73;;;;;;;;;;7397957;19;20006;-76
2022/09/17 01:52:11;;;;;;;2.15;0.57;;;;;;;;;;7393521;19;19994;-75
2022/09/17 01:54:47;;;;;;;0.82;0.77;;;;;;;;;;7397104;19;20010;-75
2022/09/17 01:57:21;;;;;;;;;;;;;;;;;;7395618;19;20002;-76
2022/09/17 01:59:54;;;;;;;1.02;0.70;;;;;;;;;;7392313;19;19921;-75
2022/09/17 02:02:29;;;;;;;0.68;0.60;;;;;;;;;;7394456;19;20006;-75
2022/09/17 02:05:05;;;;;;;0.80;0.80;;;;;;;;;;7396457;19;20096;-75
2022/09/17 02:07:36;;;;;;;1.88;0.93;;;;;;;;;;7395969;19;20014;-76
2022/09/17 02:10:06;;;;;;;0.70;0.70;;;;;;;;;;7395853;19;20329;-76
2022/09/17 02:12:36;;;;;;;3.05;1.02;;;;;;;;;;7391524;19;20560;-76
2022/09/17 02:15:07;;;;;;;0.73;0.60;;;;;;;;;;7396160;19;20015;-76
2022/09/17 02:17:47;;;;;;;1.67;0.70;;;;;;;;;;7397381;19;20022;-75
2022/09/17 02:20:12;;;;;;;1.48;0.70;;;;;;;;;;7394074;19;20455;-76
2022/09/17 02:22:49;;;;;;;1.33;0.70;;;;;;;;;;7396262;19;20015;-76
2022/09/17 02:25:17;;;;;;;1.25;0.90;;;;;;;;;;7394448;19;20055;-76
2022/09/17 02:27:50;;;;;;;1.02;0.60;;;;;;;;;;7394921;19;20022;-76
2022/09/17 02:30:16;;;;;;;0.63;0.43;;;;;;;;;;7395038;19;20432;-76
2022/09/17 02:32:41;;;;;;;0.60;0.60;;;;;;;;;;7393078;19;20115;-76
2022/09/17 02:35:08;;;;;;;1.10;1.00;;;;;;;;;;7398021;19;20007;-76
2022/09/17 02:37:34;;;;;;;0.50;0.50;;;;;;;;;;7391568;19;20332;-76
2022/09/17 02:39:59;;;;;;;0.73;0.60;;;;;;;;;;7394377;19;20018;-76
2022/09/17 02:42:52;;;;;;;0.93;0.75;;;;;;;;;;7394474;19;20040;-76
2022/09/17 02:45:45;;;;;;;0.77;0.60;;;;;;;;;;7393803;19;20073;-76
2022/09/17 02:48:27;;;;;;;0.70;0.50;;;;;;;;;;7391552;19;20025;-76
2022/09/17 02:51:04;;;;;;;0.98;0.70;;;;;;;;;;7394288;19;20010;-76
2022/09/17 02:53:56;;;;;;;2.85;0.70;;;;;;;;;;7392390;19;20006;-76
2022/09/17 02:56:47;;;;;;;0.70;0.70;;;;;;;;;;7393668;19;20040;-76
2022/09/17 02:59:23;;;;;;;1.00;0.73;;;;;;;;;;7392590;19;20014;-76
2022/09/17 03:02:01;;;;;;;0.95;0.82;;;;;;;;;;7393087;19;20021;-79
2022/09/17 03:04:28;;;;;;;0.70;0.70;;;;;;;;;;7396126;19;20178;-78
2022/09/17 03:06:54;;;;;;;0.90;0.57;;;;;;;;;;7394282;19;20013;-78
2022/09/17 03:09:19;;;;;;;3.55;0.63;;;;;;;;;;7391227;19;20007;-78
2022/09/17 03:11:45;;;;;;;0.85;0.70;;;;;;;;;;7392991;19;20070;-78
2022/09/17 03:14:10;;;;;;;1.48;0.60;;;;;;;;;;7393580;19;20003;-77
2022/09/17 03:16:35;;;;;;;0.50;0.50;;;;;;;;;;7394786;19;20102;-78
2022/09/17 03:19:01;;;;;;;0.82;0.65;;;;;;;;;;7392634;19;20006;-78
2022/09/17 03:21:26;;;;;;;0.73;0.60;;;;;;;;;;7393070;19;20006;-78
2022/09/17 03:23:51;;;;;;;2.22;0.90;;;;;;;;;;7393816;19;20194;-78
2022/09/17 03:26:17;;;;;;;2.00;0.70;;;;;;;;;;7394245;19;19999;-77
2022/09/17 03:28:42;;;;;;;2.05;0.68;;;;;;;;;;7391544;19;20002;-78
2022/09/17 03:31:08;;;;;;;1.60;0.75;;;;;;;;;;7394737;19;20730;-78
2022/09/17 03:33:33;;;;;;;0.70;0.70;;;;;;;;;;7388869;19;20003;-77
2022/09/17 03:35:59;;;;;;;1.40;1.10;;;;;;;;;;7394201;19;20014;-78
2022/09/17 03:38:24;;;;;;;0.60;0.60;;;;;;;;;;7390951;19;20343;-78
2022/09/17 03:41:00;;;;;;;1.77;0.90;;;;;;;;;;7390512;19;20047;-78
2022/09/17 03:43:25;;;;;;;3.55;0.70;;;;;;;;;;7392720;19;20036;-77
2022/09/17 03:45:51;;;;;;;2.30;0.60;;;;;;;;;;7395500;19;19990;-78
2022/09/17 03:48:16;;;;;;;1.80;0.75;;;;;;;;;;7388362;19;20020;-77
2022/09/17 03:50:42;;;;;;;1.88;0.60;;;;;;;;;;7392171;19;20010;-77
2022/09/17 03:53:07;;;;;;;2.45;0.70;;;;;;;;;;7392717;19;20014;-77
2022/09/17 03:55:33;;;;;;;1.20;0.60;;;;;;;;;;7392209;19;20035;-77
2022/09/17 03:57:58;;;;;;;1.60;0.65;;;;;;;;;;7390759;19;20622;-78
2022/09/17 04:00:24;;;;;;;2.33;1.70;;;;;;;;;;7393322;19;19998;-77
2022/09/17 04:02:49;;;;;;;6.05;0.63;;;;;;;;;;7389188;19;20002;-78
2022/09/17 04:05:15;;;;;;;1.33;0.93;;;;;;;;;;7392638;19;20423;-78
2022/09/17 04:07:40;;;;;;;1.48;0.80;;;;;;;;;;7391849;19;20014;-77
2022/09/17 04:10:06;;;;;;;1.08;0.63;;;;;;;;;;7392061;19;19998;-78
2022/09/17 04:12:32;;;;;;;1.35;0.60;;;;;;;;;;7391385;19;20009;-78
2022/09/17 04:14:57;;;;;;;0.63;0.57;;;;;;;;;;7392594;19;20482;-78
2022/09/17 04:17:22;;;;;;;0.70;0.70;;;;;;;;;;7404689;19;20029;-77
2022/09/17 04:19:48;;;;;;;1.35;0.70;;;;;;;;;;7405605;19;20457;-78
2022/09/17 04:22:14;;;;;;;2.75;0.88;;;;;;;;;;7405304;19;20474;-77
2022/09/17 04:24:39;;;;;;;1.10;0.65;;;;;;;;;;7407451;19;20023;-77
2022/09/17 04:27:04;;;;;;;1.73;0.73;;;;;;;;;;7403229;19;19998;-78
2022/09/17 04:29:30;;;;;;;1.70;0.95;;;;;;;;;;7403559;19;20019;-77
2022/09/17 04:31:55;;;;;;;1.33;0.65;;;;;;;;;;7401452;19;20006;-77
2022/09/17 04:34:20;;;;;;;5.35;0.70;;;;;;;;;;7406982;19;19994;-77
2022/09/17 04:36:46;;;;;;;0.90;0.47;;;;;;;;;;7404058;19;20003;-77
2022/09/17 04:39:11;;;;;;;0.38;0.30;;;;;;;;;;7403559;19;20389;-79
2022/09/17 04:41:36;;;;;;;1.98;0.77;;;;;;;;;;7402326;19;20003;-77
2022/09/17 04:44:02;;;;;;;3.30;0.82;;;;;;;;;;7405227;19;20087;-78
2022/09/17 04:46:27;;;;;;;1.48;0.70;;;;;;;;;;7406619;19;20327;-77
2022/09/17 04:48:52;;;;;;;1.70;0.90;;;;;;;;;;7404223;19;20343;-78
2022/09/17 04:51:17;;;;;;;1.00;0.50;;;;;;;;;;7406325;19;20458;-82
2022/09/17 04:53:43;;;;;;;1.70;0.80;;;;;;;;;;7409418;19;20002;-87
2022/09/17 04:56:08;;;;;;;0.75;0.70;;;;;;;;;;7401367;19;19994;-76
2022/09/17 04:58:34;;;;;;;4.28;0.60;;;;;;;;;;7402374;19;20850;-76
2022/09/17 05:00:59;;;;;;;1.17;0.60;;;;;;;;;;7398947;19;20107;-75
2022/09/17 05:03:24;;;;;;;1.65;0.70;;;;;;;;;;7402168;19;19998;-76
2022/09/17 05:05:50;;;;;;;2.05;0.88;;;;;;;;;;7399815;19;20002;-74
2022/09/17 05:08:15;;;;;;;0.75;0.75;;;;;;;;;;7392120;19;20005;-75
2022/09/17 05:10:40;;;;;;;2.85;0.60;;;;;;;;;;7398239;19;20108;-74
2022/09/17 05:13:06;;;;;;;2.08;0.70;;;;;;;;;;7403851;19;19998;-75
2022/09/17 05:15:31;;;;;;;1.15;0.70;;;;;;;;;;7405759;19;20469;-75
2022/09/17 05:17:56;;;;;;;0.50;0.50;;;;;;;;;;7405304;19;20010;-74
2022/09/17 05:20:22;;;;;;;1.10;0.60;;;;;;;;;;7401891;19;20003;-75
2022/09/17 05:22:53;;;;;;;1.20;0.50;;;;;;;;;;7397745;19;20003;-75
2022/09/17 05:25:22;;;;;;;0.70;0.70;;;;;;;;;;7399632;19;19998;-74
2022/09/17 05:27:48;;;;;;;4.47;0.98;;;;;;;;;;7388419;19;20035;-74
2022/09/17 05:30:13;;;;;;;1.48;0.60;;;;;;;;;;7391892;19;20006;-74
2022/09/17 05:32:39;;;;;;;0.85;0.47;;;;;;;;;;7390945;19;20112;-74
2022/09/17 05:35:05;;;;;;;1.13;0.50;;;;;;;;;;7392610;19;20006;-75
2022/09/17 05:37:30;;;;;;;2.50;0.60;;;;;;;;;;7393214;19;20074;-74
2022/09/17 05:39:56;;;;;;;2.97;0.60;;;;;;;;;;7388307;19;20739;-74
2022/09/17 05:42:21;;;;;;;1.85;0.60;;;;;;;;;;7390544;19;20646;-74
2022/09/17 05:44:46;;;;;;;0.60;0.60;;;;;;;;;;7388808;19;20487;-84
2022/09/17 05:47:12;;;;;;;1.67;0.60;;;;;;;;;;7394492;19;20355;-85
2022/09/17 05:49:37;;;;;;;1.23;0.50;;;;;;;;;;7394302;19;20021;-84
2022/09/17 05:52:02;;;;;;;3.30;0.65;;;;;;;;;;7392930;19;20003;-81
2022/09/17 05:54:28;;;;;;;0.60;0.60;;;;;;;;;;7394810;19;20010;-84
2022/09/17 05:56:53;;;;;;;1.02;0.75;;;;;;;;;;7393403;19;20010;-85
2022/09/17 05:59:19;;;;;;;1.40;0.88;;;;;;;;;;7388694;19;20341;-84
2022/09/17 06:01:45;;;;;;;2.47;0.75;;;;;;;;;;7386017;19;20061;-87
2022/09/17 06:04:10;;;;;;;2.30;0.77;;;;;;;;;;7393101;19;20109;-82
2022/09/17 06:06:37;;;;;;;1.88;0.60;;;;;;;;;;7393143;19;20015;-83
2022/09/17 06:09:04;;;;;;;1.48;0.90;;;;;;;;;;7390665;19;20010;-80
2022/09/17 06:11:29;;;;;;;1.25;0.80;;;;;;;;;;7390454;19;20006;-83
2022/09/17 06:13:55;;;;;;;2.03;0.68;;;;;;;;;;7391550;19;19999;-81
2022/09/17 06:16:22;;;;;;;2.38;0.60;;;;;;;;;;7391354;19;20026;-81
2022/09/17 06:18:49;;;;;;;2.13;0.50;;;;;;;;;;7390872;19;20027;-77
2022/09/17 06:21:14;;;;;;;2.15;1.05;;;;;;;;;;7391416;19;20031;-78
2022/09/17 06:23:42;;;;;;;3.85;0.75;;;;;;;;;;7393084;19;20010;-77
2022/09/17 06:26:07;;;;;;;1.65;0.50;;;;;;;;;;7393093;19;20074;-79
2022/09/17 06:28:33;;;;;;;2.45;0.55;;;;;;;;;;7390056;19;20006;-78
2022/09/17 06:31:00;;;;;;;1.75;0.90;;;;;;;;;;7386080;19;20559;-77
2022/09/17 06:33:26;;;;;;;1.77;0.70;;;;;;;;;;7390719;19;20010;-77
2022/09/17 06:35:59;;;;;;;3.90;0.75;;;;;;;;;;7388657;19;20023;-78
2022/09/17 06:38:27;;;;;;;2.13;0.80;;;;;;;;;;7391555;19;20037;-78
2022/09/17 06:40:52;;;;;;;1.90;0.75;;;;;;;;;;7387899;19;20010;-79
2022/09/17 06:43:18;;;;;;;4.38;0.88;;;;;;;;;;7389987;19;20007;-77
2022/09/17 06:45:50;;;;;;;1.10;0.57;;;;;;;;;;7390343;19;20003;-78
2022/09/17 06:48:16;;;;;;;2.40;0.50;;;;;;;;;;7387975;19;20112;-78
2022/09/17 06:50:41;;;;;;;4.78;0.93;;;;;;;;;;7391176;19;20006;-77
2022/09/17 06:53:08;;;;;;;1.92;0.70;;;;;;;;;;7387333;19;20181;-79
2022/09/17 06:55:33;;;;;;;1.95;0.75;;;;;;;;;;7388262;19;20014;-79
2022/09/17 06:57:59;;;;;;;2.25;0.68;;;;;;;;;;7383519;19;20011;-82
2022/09/17 07:00:25;;;;;;;3.20;0.73;;;;;;;;;;7390566;19;20347;-80
2022/09/17 07:02:56;;;;;;;3.75;0.70;;;;;;;;;;7383592;19;20341;-79
2022/09/17 07:05:22;;;;;;;5.40;0.90;;;;;;;;;;7390714;19;20121;-80
2022/09/17 07:07:47;;;;;;;2.28;0.70;;;;;;;;;;7388491;19;20088;-79
2022/09/17 07:10:12;;;;;;;5.68;1.05;;;;;;;;;;7389436;19;20014;-78
2022/09/17 07:12:41;;;;;;;2.13;0.88;;;;;;;;;;7385367;19;20106;-79
2022/09/17 07:15:10;;;;;;;7.10;0.70;;;;;;;;;;7386496;19;19999;-78
2022/09/17 07:17:36;;;;;;;5.07;0.60;;;;;;;;;;7388771;19;20455;-78
2022/09/17 07:20:02;;;;;;;3.10;0.70;;;;;;;;;;7388750;19;20047;-78
2022/09/17 07:22:27;;;;;;;1.65;0.63;;;;;;;;;;7388888;19;20074;-78
2022/09/17 07:24:52;;;;;;;2.55;0.77;;;;;;;;;;7386633;19;20014;-79
2022/09/17 07:27:17;;;;;;;4.05;1.15;;;;;;;;;;7386948;19;20007;-79
2022/09/17 07:29:43;;;;;;;4.85;0.70;;;;;;;;;;7386737;19;20840;-80
2022/09/17 07:32:08;;;;;;;2.65;0.68;;;;;;;;;;7386950;19;19998;-79
2022/09/17 07:34:33;;;;;;;4.55;0.90;;;;;;;;;;7379406;19;20078;-79
2022/09/17 07:36:59;;;;;;;6.20;0.73;;;;;;;;;;7390174;19;20003;-79
2022/09/17 07:39:24;;;;;;;2.22;0.70;;;;;;;;;;7389195;19;20018;-79
2022/09/17 07:41:49;;;;;;;7.97;1.35;;;;;;;;;;7389676;19;20462;-78
2022/09/17 07:44:14;;;;;;;1.80;0.80;;;;;;;;;;7389120;19;20014;-82
2022/09/17 07:46:40;;;;;;;2.20;0.60;;;;;;;;;;7390041;19;20013;-80
2022/09/17 07:49:05;;;;;;;3.28;0.80;;;;;;;;;;7387719;19;20036;-78
2022/09/17 07:51:30;;;;;;;2.83;0.77;;;;;;;;;;7390369;19;20007;-82
2022/09/17 07:53:58;;;;;;;4.20;0.80;;;;;;;;;;7393060;19;20031;-81
2022/09/17 07:56:25;;;;;;;5.10;0.82;;;;;;;;;;7394662;19;20010;-81
2022/09/17 07:58:50;;;;;;;6.90;1.10;;;;;;;;;;7398781;19;20015;-81
2022/09/17 08:01:16;;;;;;;2.83;0.90;;;;;;;;;;7391148;19;20530;-82
2022/09/17 08:03:46;;;;;;;4.70;0.70;;;;;;;;;;7394196;19;20010;-81
2022/09/17 08:06:15;;;;;;;5.20;0.70;;;;;;;;;;7391795;19;20026;-82
2022/09/17 08:08:41;;;;;;;4.45;0.88;;;;;;;;;;7392601;19;20081;-82
2022/09/17 08:11:10;;;;;;;2.20;0.85;;;;;;;;;;7394151;19;20014;-82
2022/09/17 08:13:36;;;;;;;3.08;1.05;;;;;;;;;;7393528;19;20034;-76
2022/09/17 08:16:05;;;;;;;6.45;0.85;;;;;;;;;;7388717;19;20006;-77
2022/09/17 08:18:31;;;;;;;1.95;0.68;;;;;;;;;;7389187;19;20002;-77
2022/09/17 08:20:58;;;;;;;3.58;0.77;;;;;;;;;;7389330;19;20010;-79
2022/09/17 08:23:24;;;;;;;6.45;1.15;;;;;;;;;;7392276;19;20014;-79
2022/09/17 08:25:54;;;;;;;5.03;0.93;;;;;;;;;;7390973;19;20347;-76
2022/09/17 08:28:20;;;;;;;3.67;1.00;;;;;;;;;;7390646;19;20007;-77
2022/09/17 08:30:47;;;;;;;3.35;0.98;;;;;;;;;;7388594;19;20010;-80
2022/09/17 08:33:12;;;;;;;3.70;0.80;;;;;;;;;;7390168;19;20020;-78
2022/09/17 08:35:38;;;;;;;5.15;1.08;;;;;;;;;;7385572;19;20007;-78
2022/09/17 08:38:03;;;;;;;5.10;0.80;;;;;;;;;;7385112;19;20025;-78
2022/09/17 08:40:28;;;;;;;3.70;1.23;;;;;;;;;;7388972;19;20003;-78
2022/09/17 08:43:00;;;;;;;5.40;0.73;;;;;;;;;;7386208;19;20003;-78
2022/09/17 08:45:26;;;;;;;5.22;0.82;;;;;;;;;;7390526;19;20469;-77
2022/09/17 08:47:59;;;;;;;1.73;0.63;;;;;;;;;;7390260;19;20027;-79
2022/09/17 08:50:31;;;;;;;4.38;1.05;;;;;;;;;;7391826;19;20038;-80
2022/09/17 08:53:15;;;;;;;6.18;1.45;;;;;;;;;;7398505;19;20198;-82
2022/09/17 08:56:08;;;;;;;3.03;0.73;;;;;;;;;;7392324;19;20502;-80
2022/09/17 08:58:52;;;;;;;1.80;0.60;;;;;;;;;;7392203;19;20023;-82
2022/09/17 09:01:39;;;;;;;0.70;0.40;;;;;;;;;;7388322;19;20091;-82
2022/09/17 09:04:43;;;;;;;3.95;1.05;;;;;;;;;;7394007;19;20010;-84
2022/09/17 09:07:17;;;;;;;5.65;1.58;;;;;;;;;;7399253;19;20081;-83
2022/09/17 09:09:52;;;;;;;4.18;0.80;;;;;;;;;;7400679;19;20110;-83
2022/09/17 09:12:25;;;;;;;6.03;0.50;;;;;;;;;;7397779;19;20567;-82
2022/09/17 09:14:58;;;;;;;4.00;0.57;;;;;;;;;;7391218;19;20075;-78
2022/09/17 09:17:31;;;;;;;4.47;0.50;;;;;;;;;;7394725;19;20082;-82
2022/09/17 09:19:56;;;;;;;1.65;0.50;;;;;;;;;;7401653;19;20487;-83
2022/09/17 09:22:46;;;;;;;0.70;0.40;;;;;;;;;;7398853;19;20003;-83
2022/09/17 09:25:23;;;;;;;1.67;0.50;;;;;;;;;;7394559;19;20364;-81
2022/09/17 09:27:59;;;;;;;1.45;0.50;;;;;;;;;;7400085;19;19999;-83
2022/09/17 09:30:35;;;;;;;2.70;0.60;;;;;;;;;;7393562;19;19998;-83
2022/09/17 09:33:13;;;;;;;1.15;0.30;;;;;;;;;;7391855;19;20044;-82
2022/09/17 09:35:43;;;;;;;1.38;0.30;;;;;;;;;;7400440;19;20003;-83
2022/09/17 09:38:08;;;;;;;2.08;0.63;;;;;;;;;;7396953;19;20010;-82
2022/09/17 09:40:38;;;;;;;0.43;0.28;;;;;;;;;;7395859;19;20020;-82
2022/09/17 09:43:17;;;;;;;0.30;0.20;;;;;;;;;;7397134;19;20018;-83
2022/09/17 09:45:55;;;;;;;1.25;0.65;;;;;;;;;;7397840;19;20362;-83
2022/09/17 09:48:39;;;;;;;1.98;0.40;;;;;;;;;;7392933;19;20391;-79
2022/09/17 09:51:31;;;;;;;2.25;0.52;;;;;;;;;;7397902;19;19990;-82
2022/09/17 09:54:00;;;;;;;2.35;0.65;;;;;;;;;;7396830;19;20024;-82
2022/09/17 09:56:55;;;;;;;2.55;0.85;;;;;;;;;;7398865;19;20006;-84
2022/09/17 09:59:20;;;;;;;2.10;0.50;;;;;;;;;;7394780;19;20316;-83
2022/09/17 10:01:45;;;;;;;1.88;0.65;;;;;;;;;;7394474;19;20013;-83
2022/09/17 10:04:22;;;;;;;1.23;0.68;;;;;;;;;;7396394;19;20017;-81
2022/09/17 10:06:51;;;;;;;2.17;0.50;;;;;;;;;;7396672;19;20014;-80
2022/09/17 10:09:20;;;;;;;2.65;0.80;;;;;;;;;;7398005;19;20023;-81
2022/09/17 10:12:06;;;;;;;1.95;0.60;;;;;;;;;;7396173;19;20082;-80
2022/09/17 10:14:40;;;;;;;1.20;0.63;;;;;;;;;;7397971;19;20503;-80
2022/09/17 10:17:25;;;;;;;2.20;0.60;;;;;;;;;;7399128;19;20006;-81
2022/09/17 10:20:09;;;;;;;2.72;1.08;;;;;;;;;;7392865;19;20356;-83
2022/09/17 10:22:37;;;;;;;4.72;1.23;;;;;;;;;;7394404;19;20002;-80
2022/09/17 10:25:05;;;;;;;3.38;0.75;;;;;;;;;;7396204;19;20528;-80
2022/09/17 10:27:31;;;;;;;1.73;0.68;;;;;;;;;;7395485;19;20007;-78
2022/09/17 10:30:15;;;;;;;0.63;0.43;;;;;;;;;;7397368;19;20014;-81
2022/09/17 10:32:41;;;;;;;0.95;0.60;;;;;;;;;;7392386;19;20003;-78
2022/09/17 10:35:15;;;;;;;3.58;0.80;;;;;;;;;;7390366;19;20015;-79
2022/09/17 10:37:42;;;;;;;1.93;0.83;;;;;;;;;;7392431;19;20006;-80
2022/09/17 10:40:34;;;;;;;4.20;0.85;;;;;;;;;;7392033;19;20489;-78
2022/09/17 10:43:13;;;;;;;2.30;0.70;;;;;;;;;;7392147;19;20014;-80
2022/09/17 10:45:43;;;;;;;1.90;0.55;;;;;;;;;;7396000;19;20010;-80
2022/09/17 10:48:16;;;;;;;3.58;0.70;;;;;;;;;;7392532;19;20006;-80
2022/09/17 10:50:47;;;;;;;1.85;0.60;;;;;;;;;;7395734;19;20014;-78
2022/09/17 10:53:17;;;;;;;3.40;0.50;;;;;;;;;;7394053;19;20330;-87
2022/09/17 10:55:42;;;;;;;1.92;0.80;;;;;;;;;;7394141;19;20018;-79
2022/09/17 10:58:36;;;;;;;1.75;0.40;;;;;;;;;;7391486;19;20582;-79
2022/09/17 11:01:22;;;;;;;3.08;0.70;;;;;;;;;;7394802;19;20021;-80
2022/09/17 11:04:06;;;;;;;3.80;0.70;;;;;;;;;;7390610;19;20031;-83
2022/09/17 11:06:34;;;;;;;3.92;0.82;;;;;;;;;;7397391;19;20011;-80
2022/09/17 11:09:24;;;;;;;3.28;0.52;;;;;;;;;;7392590;19;20002;-78
2022/09/17 11:12:17;;;;;;;1.90;0.52;;;;;;;;;;7393109;19;20011;-82
2022/09/17 11:15:23;;;;;;;1.85;0.52;;;;;;;;;;7394772;19;20073;-83
2022/09/17 11:18:17;;;;;;;3.72;0.65;;;;;;;;;;7396231;19;20010;-84
2022/09/17 11:20:51;;;;;;;2.47;0.52;;;;;;;;;;7388648;19;20006;-80
2022/09/17 11:23:48;;;;;;;2.10;0.73;;;;;;;;;;7395101;19;20054;-80
2022/09/17 11:26:40;;;;;;;1.25;0.63;;;;;;;;;;7391091;19;20074;-80
2022/09/17 11:29:24;;;;;;;2.80;0.70;;;;;;;;;;7391974;19;19999;-78
2022/09/17 11:31:55;;;;;;;1.27;0.38;;;;;;;;;;7386242;19;20339;-81
2022/09/17 11:34:43;;;;;;;5.85;0.60;;;;;;;;;;7391307;19;20018;-80
2022/09/17 11:37:24;;;;;;;1.85;0.55;;;;;;;;;;7395146;19;20010;-79
2022/09/17 11:39:56;;;;;;;2.08;0.55;;;;;;;;;;7391906;19;20015;-81
2022/09/17 11:42:29;;;;;;;1.20;0.50;;;;;;;;;;7387676;19;20074;-81
2022/09/17 11:45:02;;;;;;;1.20;0.50;;;;;;;;;;7394763;19;19999;-82
2022/09/17 11:47:38;;;;;;;1.38;0.40;;;;;;;;;;7389195;19;20043;-81
2022/09/17 11:50:23;;;;;;;7.18;2.30;;;;;;;;;;7389795;19;20468;-80
2022/09/17 11:53:10;;;;;;;3.58;0.90;;;;;;;;;;7392008;19;20010;-79
2022/09/17 11:55:45;;;;;;;1.27;0.47;;;;;;;;;;7390111;19;20486;-80
2022/09/17 11:58:31;;;;;;;4.35;0.90;;;;;;;;;;7392038;19;20054;-81
2022/09/17 12:01:11;;;;;;;4.20;1.00;;;;;;;;;;7389883;19;20010;-80
2022/09/17 12:03:43;;;;;;;0.52;0.40;;;;;;;;;;7393298;19;20032;-81
2022/09/17 12:06:15;;;;;;;2.67;0.70;;;;;;;;;;7389483;19;20003;-81
2022/09/17 12:08:51;;;;;;;5.07;0.93;;;;;;;;;;7388639;19;20036;-83
2022/09/17 12:11:28;;;;;;;5.07;1.10;;;;;;;;;;7393631;19;20010;-83
2022/09/17 12:13:57;;;;;;;1.38;0.60;;;;;;;;;;7390577;19;20007;-84
2022/09/17 12:16:32;;;;;;;3.70;1.05;;;;;;;;;;7391977;19;20007;-85
2022/09/17 12:19:04;;;;;;;3.17;0.70;;;;;;;;;;7394588;19;19994;-80
2022/09/17 12:21:57;;;;;;;5.30;0.68;;;;;;;;;;7389560;19;20439;-83
2022/09/17 12:24:25;;;;;;;2.53;0.55;;;;;;;;;;7388877;19;20014;-83
2022/09/17 12:27:14;;;;;;;1.02;0.30;;;;;;;;;;7394127;19;20003;-83
2022/09/17 12:30:07;;;;;;;2.10;0.70;;;;;;;;;;7390335;19;20019;-83
2022/09/17 12:32:32;;;;;;;2.40;1.13;;;;;;;;;;7388462;19;20024;-84
2022/09/17 12:35:27;;;;;;;1.38;0.63;;;;;;;;;;7387022;19;20455;-83
2022/09/17 12:38:17;;;;;;;4.95;1.00;;;;;;;;;;7399282;19;20010;-83
2022/09/17 12:41:04;;;;;;;1.15;0.50;;;;;;;;;;7399345;19;20609;-82
2022/09/17 12:43:54;;;;;;;1.08;0.50;;;;;;;;;;7397318;19;20002;-83
2022/09/17 12:46:57;;;;;;;1.67;0.70;;;;;;;;;;7396182;19;20017;-83
2022/09/17 12:49:59;;;;;;;2.17;0.77;;;;;;;;;;7398696;19;19999;-83
2022/09/17 12:52:25;;;;;;;2.45;0.88;;;;;;;;;;7394490;19;20023;-84
2022/09/17 12:55:24;;;;;;;1.80;0.85;;;;;;;;;;7401023;19;20006;-83
2022/09/17 12:57:59;;;;;;;3.63;1.00;;;;;;;;;;7396273;19;20003;-84
2022/09/17 13:00:26;;;;;;;2.47;0.80;;;;;;;;;;7400067;19;20028;-84
2022/09/17 13:03:19;;;;;;;2.85;1.00;;;;;;;;;;7391850;19;20002;-81
2022/09/17 13:06:00;;;;;;;0.98;0.57;;;;;;;;;;7397161;19;20463;-80
2022/09/17 13:08:29;;;;;;;2.47;0.95;;;;;;;;;;7393237;19;20043;-80
2022/09/17 13:11:13;;;;;;;1.85;1.00;;;;;;;;;;7398118;19;20006;-81
2022/09/17 13:13:56;;;;;;;0.98;0.70;;;;;;;;;;7399323;19;20011;-80
2022/09/17 13:16:45;;;;;;;2.08;0.63;;;;;;;;;;7395904;19;20024;-80
2022/09/17 13:19:23;;;;;;;2.28;0.88;;;;;;;;;;7394088;19;20178;-81
2022/09/17 13:21:54;;;;;;;3.95;1.00;;;;;;;;;;7392216;19;20014;-80
2022/09/17 13:24:23;;;;;;;2.85;1.17;;;;;;;;;;7392105;19;20006;-81
2022/09/17 13:26:51;;;;;;;1.85;1.17;;;;;;;;;;7397172;19;19998;-82
2022/09/17 13:29:45;;;;;;;1.75;0.90;;;;;;;;;;7395303;19;20014;-79
2022/09/17 13:32:32;;;;;;;1.42;0.82;;;;;;;;;;7391249;19;20023;-81
2022/09/17 13:35:10;;;;;;;1.77;1.00;;;;;;;;;;7393852;19;20135;-84
2022/09/17 13:37:53;;;;;;;2.20;0.88;;;;;;;;;;7396459;19;20347;-84
2022/09/17 13:40:22;;;;;;;3.90;1.17;;;;;;;;;;7393214;19;20038;-84
2022/09/17 13:42:54;;;;;;;2.85;0.80;;;;;;;;;;7395692;19;20030;-83
2022/09/17 13:45:22;;;;;;;1.17;0.65;;;;;;;;;;7395906;19;20010;-83
2022/09/17 13:47:55;;;;;;;4.18;0.80;;;;;;;;;;7394479;19;20010;-82
2022/09/17 13:50:42;;;;;;;1.80;0.80;;;;;;;;;;7395078;19;20458;-82
2022/09/17 13:53:20;;;;;;;3.78;0.85;;;;;;;;;;7394451;19;20346;-81
2022/09/17 13:55:51;;;;;;;2.10;0.50;;;;;;;;;;7397138;19;20010;-83
2022/09/17 13:58:22;;;;;;;5.18;1.40;;;;;;;;;;7399740;19;20006;-83
2022/09/17 14:00:53;;;;;;;1.13;0.40;;;;;;;;;;7397624;19;20006;-83
2022/09/17 14:03:27;;;;;;;3.78;0.70;;;;;;;;;;7394664;19;20014;-82
2022/09/17 14:05:54;;;;;;;4.10;0.60;;;;;;;;;;7396512;19;20494;-82
2022/09/17 14:08:29;;;;;;;2.83;0.93;;;;;;;;;;7393197;19;20018;-82
2022/09/17 14:11:00;;;;;;;3.08;0.65;;;;;;;;;;7395632;19;20010;-83
2022/09/17 14:13:46;;;;;;;1.85;0.60;;;;;;;;;;7396466;19;20006;-77
2022/09/17 14:16:45;;;;;;;1.25;0.45;;;;;;;;;;7395490;19;20007;-76
2022/09/17 14:19:32;;;;;;;0.75;0.52;;;;;;;;;;7390446;19;20005;-77
2022/09/17 14:22:12;;;;;;;0.65;0.20;;;;;;;;;;7395401;19;20467;-77
2022/09/17 14:24:45;;;;;;;1.30;0.52;;;;;;;;;;7393512;19;20025;-76
2022/09/17 14:27:26;;;;;;;1.65;0.30;;;;;;;;;;7394140;19;20013;-75
2022/09/17 14:30:01;;;;;;;0.98;0.20;;;;;;;;;;7392095;19;20497;-80
2022/09/17 14:32:38;;;;;;;1.67;0.80;;;;;;;;;;7391223;19;20435;-80
2022/09/17 14:35:14;;;;;;;1.30;0.70;;;;;;;;;;7393461;19;20086;-74
2022/09/17 14:37:42;;;;;;;3.10;1.70;;;;;;;;;;7393241;19;20399;-75
2022/09/17 14:40:15;;;;;;;1.40;0.77;;;;;;;;;;7395125;19;19997;-78
2022/09/17 14:42:41;;;;;;;0.80;0.60;;;;;;;;;;7391090;19;19998;-79
2022/09/17 14:45:15;;;;;;;1.70;0.70;;;;;;;;;;7386923;19;20034;-81
2022/09/17 14:47:41;;;;;;;2.08;0.63;;;;;;;;;;7386208;19;20013;-81
2022/09/17 14:50:24;;;;;;;1.85;0.65;;;;;;;;;;7391161;19;20011;-85
2022/09/17 14:52:53;;;;;;;2.50;1.00;;;;;;;;;;7392678;19;20018;-81
2022/09/17 14:55:25;;;;;;;0.82;0.47;;;;;;;;;;7395979;19;20013;-82
2022/09/17 14:58:03;;;;;;;1.10;0.50;;;;;;;;;;7395643;19;20102;-87
2022/09/17 15:00:34;;;;;;;2.72;0.60;;;;;;;;;;7392836;19;20002;-81
2022/09/17 15:02:59;;;;;;;1.42;0.65;;;;;;;;;;7388767;19;20140;-81
2022/09/17 15:05:34;;;;;;;2.55;0.68;;;;;;;;;;7391417;19;20779;-86
2022/09/17 15:08:12;;;;;;;2.13;0.60;;;;;;;;;;7391900;19;20466;-81
2022/09/17 15:11:01;;;;;;;1.60;0.55;;;;;;;;;;7393494;19;20385;-83
2022/09/17 15:13:29;;;;;;;1.10;0.47;;;;;;;;;;7393882;19;20021;-84
2022/09/17 15:16:20;;;;;;;1.48;0.40;;;;;;;;;;7390687;19;20370;-84